createdAt,value
2023-04-18T00:01:03.174Z,98784.00
2023-04-18T00:03:51.571Z,98785.00
2023-04-18T00:06:40.105Z,98776.00
2023-04-18T00:09:27.778Z,98781.00
2023-04-18T00:12:15.694Z,98779.00
2023-04-18T00:15:04.900Z,98780.00
2023-04-18T00:17:52.494Z,98772.00
2023-04-18T00:20:40.040Z,98769.00
2023-04-18T00:23:28.337Z,98772.00
2023-04-18T00:26:15.857Z,98780.00
2023-04-18T00:29:04.143Z,98772.00
2023-04-18T00:31:51.617Z,98772.00
2023-04-18T00:34:40.560Z,98772.00
2023-04-18T00:37:29.368Z,98768.00
2023-04-18T00:40:16.853Z,98769.00
2023-04-18T00:43:04.702Z,98774.00
2023-04-18T00:45:52.574Z,98776.00
2023-04-18T00:48:40.682Z,98766.00
2023-04-18T00:51:28.464Z,98770.00
2023-04-18T00:54:22.117Z,98763.00
2023-04-18T00:57:09.721Z,98772.00
2023-04-18T00:59:57.431Z,98771.00
2023-04-18T01:02:45.020Z,98771.00
2023-04-18T01:05:32.713Z,98767.00
2023-04-18T01:08:22.180Z,98765.00
2023-04-18T01:11:09.641Z,98764.00
2023-04-18T01:14:06.501Z,98762.00
2023-04-18T01:16:53.965Z,98768.00
2023-04-18T01:19:41.529Z,98755.00
2023-04-18T01:22:31.967Z,98755.00
2023-04-18T01:25:19.432Z,98759.00
2023-04-18T01:28:08.107Z,98751.00
2023-04-18T01:30:56.198Z,98761.00
2023-04-18T01:33:43.685Z,98758.00
2023-04-18T01:36:32.741Z,98759.00
2023-04-18T01:39:20.279Z,98759.00
2023-04-18T01:42:07.816Z,98757.00
2023-04-18T01:44:55.247Z,98759.00
2023-04-18T01:47:44.111Z,98755.00
2023-04-18T01:50:31.707Z,98757.00
2023-04-18T01:53:19.136Z,98750.00
2023-04-18T01:56:06.889Z,98749.00
2023-04-18T01:58:54.456Z,98754.00
2023-04-18T02:01:43.378Z,98751.00
2023-04-18T02:04:31.048Z,98764.00
2023-04-18T02:07:18.552Z,98758.00
2023-04-18T02:10:06.968Z,98759.00
2023-04-18T02:12:54.438Z,98767.00
2023-04-18T02:15:44.754Z,98759.00
2023-04-18T02:18:34.675Z,98759.00
2023-04-18T02:21:22.731Z,98758.00
2023-04-18T02:24:10.344Z,98758.00
2023-04-18T02:26:58.332Z,98759.00
2023-04-18T02:29:45.962Z,98770.00
2023-04-18T02:32:33.524Z,98759.00
2023-04-18T02:35:21.716Z,98769.00
2023-04-18T02:38:09.286Z,98770.00
2023-04-18T02:40:56.694Z,98761.00
2023-04-18T02:43:44.131Z,98767.00
2023-04-18T02:46:31.635Z,98760.00
2023-04-18T02:49:19.256Z,98766.00
2023-04-18T02:52:06.852Z,98769.00
2023-04-18T02:54:54.368Z,98763.00
2023-04-18T02:57:41.811Z,98762.00
2023-04-18T03:00:29.507Z,98759.00
2023-04-18T03:03:17.336Z,98757.00
2023-04-18T03:06:05.162Z,98760.00
2023-04-18T03:08:52.833Z,98760.00
2023-04-18T03:11:40.420Z,98756.00
2023-04-18T03:14:28.310Z,98763.00
2023-04-18T03:17:16.221Z,98753.00
2023-04-18T03:20:04.022Z,98762.00
2023-04-18T03:22:51.542Z,98751.00
2023-04-18T03:25:39.071Z,98755.00
2023-04-18T03:28:26.533Z,98758.00
2023-04-18T03:31:14.023Z,98756.00
2023-04-18T03:34:01.454Z,98755.00
2023-04-18T03:36:49.060Z,98756.00
2023-04-18T03:39:36.597Z,98761.00
2023-04-18T03:42:24.407Z,98756.00
2023-04-18T03:45:12.194Z,98752.00
2023-04-18T03:47:59.751Z,98763.00
2023-04-18T03:50:47.210Z,98759.00
2023-04-18T03:53:34.724Z,98770.00
2023-04-18T03:56:22.169Z,98769.00
2023-04-18T03:59:10.930Z,98760.00
2023-04-18T04:01:58.536Z,98767.00
2023-04-18T04:04:47.039Z,98774.00
2023-04-18T04:07:35.147Z,98783.00
2023-04-18T04:10:22.745Z,98780.00
2023-04-18T04:13:10.395Z,98783.00
2023-04-18T04:15:58.326Z,98780.00
2023-04-18T04:18:45.889Z,98774.00
2023-04-18T04:21:33.448Z,98781.00
2023-04-18T04:24:22.812Z,98781.00
2023-04-18T04:27:12.525Z,98783.00
2023-04-18T04:30:00.870Z,98784.00
2023-04-18T04:32:48.433Z,98787.00
2023-04-18T04:35:37.078Z,98786.00
2023-04-18T04:38:25.362Z,98795.00
2023-04-18T04:41:12.942Z,98787.00
2023-04-18T04:44:02.032Z,98788.00
2023-04-18T04:46:49.934Z,98796.00
2023-04-18T04:49:37.455Z,98786.00
2023-04-18T04:52:24.966Z,98791.00
2023-04-18T04:55:12.630Z,98792.00
2023-04-18T04:58:00.563Z,98787.00
2023-04-18T05:00:48.219Z,98792.00
2023-04-18T05:03:36.614Z,98793.00
2023-04-18T05:06:25.174Z,98792.00
2023-04-18T05:09:12.641Z,98795.00
2023-04-18T05:12:00.207Z,98783.00
2023-04-18T05:14:47.627Z,98798.00
2023-04-18T05:17:35.428Z,98799.00
2023-04-18T05:20:23.221Z,98797.00
2023-04-18T05:23:10.746Z,98806.00
2023-04-18T05:25:58.385Z,98805.00
2023-04-18T05:28:46.525Z,98810.00
2023-04-18T05:31:34.155Z,98812.00
2023-04-18T05:34:21.931Z,98808.00
2023-04-18T05:37:09.489Z,98805.00
2023-04-18T05:39:58.764Z,98804.00
2023-04-18T05:42:47.921Z,98808.00
2023-04-18T05:45:35.517Z,98807.00
2023-04-18T05:48:25.240Z,98808.00
2023-04-18T05:51:12.723Z,98810.00
2023-04-18T05:54:00.458Z,98807.00
2023-04-18T05:56:48.408Z,98805.00
2023-04-18T05:59:35.851Z,98810.00
2023-04-18T06:02:23.549Z,98807.00
2023-04-18T06:05:13.242Z,98809.00
2023-04-18T06:08:00.942Z,98812.00
2023-04-18T06:10:48.398Z,98811.00
2023-04-18T06:13:37.468Z,98811.00
2023-04-18T06:16:25.154Z,98814.00
2023-04-18T06:19:12.664Z,98813.00
2023-04-18T06:22:01.424Z,98816.00
2023-04-18T06:24:48.987Z,98809.00
2023-04-18T06:27:38.665Z,98821.00
2023-04-18T06:30:26.384Z,98818.00
2023-04-18T06:33:14.025Z,98820.00
2023-04-18T06:36:01.661Z,98819.00
2023-04-18T06:38:49.634Z,98820.00
2023-04-18T06:41:37.220Z,98824.00
2023-04-18T06:44:24.680Z,98826.00
2023-04-18T06:47:12.532Z,98823.00
2023-04-18T06:49:59.970Z,98823.00
2023-04-18T06:52:47.490Z,98827.00
2023-04-18T06:55:36.158Z,98825.00
2023-04-18T06:58:23.645Z,98829.00
2023-04-18T07:01:11.123Z,98825.00
2023-04-18T07:03:58.783Z,98829.00
2023-04-18T07:06:46.315Z,98823.00
2023-04-18T07:09:33.800Z,98828.00
2023-04-18T07:12:21.982Z,98825.00
2023-04-18T07:15:10.449Z,98826.00
2023-04-18T07:17:58.245Z,98825.00
2023-04-18T07:20:45.803Z,98827.00
2023-04-18T07:23:33.446Z,98827.00
2023-04-18T07:26:21.011Z,98829.00
2023-04-18T07:29:08.547Z,98826.00
2023-04-18T07:31:56.018Z,98826.00
2023-04-18T07:34:45.178Z,98822.00
2023-04-18T07:37:33.000Z,98831.00
2023-04-18T07:40:21.278Z,98828.00
2023-04-18T07:43:09.304Z,98843.00
2023-04-18T07:45:56.864Z,98839.00
2023-04-18T07:48:44.422Z,98833.00
2023-04-18T07:51:32.002Z,98844.00
2023-04-18T07:54:19.574Z,98838.00
2023-04-18T07:57:07.014Z,98843.00
2023-04-18T07:59:54.609Z,98831.00
2023-04-18T08:02:42.428Z,98840.00
2023-04-18T08:05:30.158Z,98840.00
2023-04-18T08:08:17.832Z,98835.00
2023-04-18T08:11:05.491Z,98839.00
2023-04-18T08:13:52.970Z,98844.00
2023-04-18T08:16:40.530Z,98842.00
2023-04-18T08:19:28.075Z,98851.00
2023-04-18T08:22:15.627Z,98845.00
2023-04-18T08:25:05.508Z,98853.00
2023-04-18T08:27:53.390Z,98851.00
2023-04-18T08:30:40.989Z,98849.00
2023-04-18T08:33:29.769Z,98857.00
2023-04-18T08:36:17.726Z,98865.00
2023-04-18T08:39:06.374Z,98862.00
2023-04-18T08:42:00.804Z,98861.00
2023-04-18T08:44:48.663Z,98860.00
2023-04-18T08:47:36.347Z,98861.00
2023-04-18T08:50:23.876Z,98864.00
2023-04-18T08:53:12.206Z,98867.00
2023-04-18T08:56:00.447Z,98868.00
2023-04-18T08:58:48.090Z,98874.00
2023-04-18T09:01:57.651Z,98876.00
2023-04-18T09:04:49.417Z,98877.00
2023-04-18T09:07:37.152Z,98879.00
2023-04-18T09:10:33.254Z,98877.00
2023-04-18T09:13:47.383Z,98877.00
2023-04-18T09:16:50.649Z,98880.00
2023-04-18T09:19:48.991Z,98878.00
2023-04-18T09:22:58.137Z,98882.00
2023-04-18T09:25:48.540Z,98875.00
2023-04-18T09:28:37.558Z,98881.00
2023-04-18T09:31:26.576Z,98879.00
2023-04-18T09:34:25.148Z,98870.00
2023-04-18T09:37:14.148Z,98871.00
2023-04-18T09:40:17.250Z,98877.00
2023-04-18T09:43:19.787Z,98879.00
2023-04-18T09:46:09.627Z,98874.00
2023-04-18T09:48:57.211Z,98880.00
2023-04-18T09:51:46.371Z,98878.00
2023-04-18T09:54:38.653Z,98880.00
2023-04-18T09:57:29.516Z,98877.00
2023-04-18T10:00:25.475Z,98881.00
2023-04-18T10:03:17.874Z,98889.00
2023-04-18T10:06:08.198Z,98880.00
2023-04-18T10:08:56.491Z,98888.00
2023-04-18T10:11:44.869Z,98877.00
2023-04-18T10:14:34.522Z,98879.00
2023-04-18T10:17:22.456Z,98876.00
2023-04-18T10:20:20.350Z,98882.00
2023-04-18T10:23:34.720Z,98878.00
2023-04-18T10:26:50.305Z,98882.00
2023-04-18T10:29:52.946Z,98881.00
2023-04-18T10:32:41.126Z,98883.00
2023-04-18T10:35:35.567Z,98883.00
2023-04-18T10:38:24.346Z,98885.00
2023-04-18T10:41:26.813Z,98880.00
2023-04-18T10:44:18.460Z,98877.00
2023-04-18T10:47:09.257Z,98872.00
2023-04-18T10:49:58.401Z,98882.00
2023-04-18T10:52:45.838Z,98872.00
2023-04-18T10:55:33.555Z,98873.00
2023-04-18T10:58:21.445Z,98868.00
2023-04-18T11:01:14.520Z,98867.00
2023-04-18T11:04:10.892Z,98870.00
2023-04-18T11:06:59.101Z,98872.00
2023-04-18T11:09:56.725Z,98859.00
2023-04-18T11:12:44.431Z,98867.00
2023-04-18T11:15:31.903Z,98862.00
2023-04-18T11:18:19.544Z,98860.00
2023-04-18T11:21:07.101Z,98862.00
2023-04-18T11:23:56.710Z,98859.00
2023-04-18T11:26:44.972Z,98861.00
2023-04-18T11:29:33.110Z,98863.00
2023-04-18T11:32:24.454Z,98862.00
2023-04-18T11:35:14.508Z,98865.00
2023-04-18T11:38:02.009Z,98872.00
2023-04-18T11:40:51.244Z,98876.00
2023-04-18T11:43:44.892Z,98869.00
2023-04-18T11:46:39.664Z,98876.00
2023-04-18T11:49:33.294Z,98869.00
2023-04-18T11:52:20.734Z,98874.00
2023-04-18T11:55:25.068Z,98864.00
2023-04-18T11:58:12.619Z,98869.00
2023-04-18T12:01:17.234Z,98866.00
2023-04-18T12:04:07.886Z,98871.00
2023-04-18T12:06:57.141Z,98872.00
2023-04-18T12:09:44.592Z,98869.00
2023-04-18T12:12:32.456Z,98866.00
2023-04-18T12:15:23.638Z,98872.00
2023-04-18T12:18:14.187Z,98876.00
2023-04-18T12:21:05.972Z,98869.00
2023-04-18T12:23:53.684Z,98872.00
2023-04-18T12:26:46.325Z,98878.00
2023-04-18T12:29:33.817Z,98875.00
2023-04-18T12:32:22.269Z,98881.00
2023-04-18T12:35:09.977Z,98878.00
2023-04-18T12:38:01.484Z,98881.00
2023-04-18T12:40:50.707Z,98882.00
2023-04-18T12:43:38.139Z,98875.00
2023-04-18T12:46:26.436Z,98882.00
2023-04-18T12:49:13.967Z,98883.00
2023-04-18T12:52:01.885Z,98882.00
2023-04-18T12:54:50.750Z,98879.00
2023-04-18T13:00:44.155Z,98884.00
2023-04-18T13:03:32.424Z,98883.00
2023-04-18T13:06:28.661Z,98884.00
2023-04-18T13:09:16.808Z,98885.00
2023-04-18T13:12:04.613Z,98891.00
2023-04-18T13:14:52.136Z,98883.00
2023-04-18T13:17:40.482Z,98878.00
2023-04-18T13:20:28.061Z,98880.00
2023-04-18T13:23:15.582Z,98887.00
2023-04-18T13:26:03.605Z,98879.00
2023-04-18T13:28:51.651Z,98880.00
2023-04-18T13:31:39.381Z,98879.00
2023-04-18T13:34:26.892Z,98880.00
2023-04-18T13:37:17.954Z,98880.00
2023-04-18T13:40:07.092Z,98880.00
2023-04-18T13:42:54.648Z,98873.00
2023-04-18T13:45:42.244Z,98877.00
2023-04-18T13:48:29.803Z,98880.00
2023-04-18T13:51:17.322Z,98878.00
2023-04-18T13:54:04.779Z,98885.00
2023-04-18T13:56:53.773Z,98886.00
2023-04-18T13:59:41.584Z,98880.00
2023-04-18T14:02:29.176Z,98881.00
2023-04-18T14:05:16.771Z,98883.00
2023-04-18T14:08:05.098Z,98885.00
2023-04-18T14:10:52.588Z,98877.00
2023-04-18T14:13:40.118Z,98882.00
2023-04-18T14:16:32.171Z,98883.00
2023-04-18T14:19:19.955Z,98888.00
2023-04-18T14:22:08.114Z,98881.00
2023-04-18T14:24:56.263Z,98891.00
2023-04-18T14:27:47.963Z,98890.00
2023-04-18T14:30:37.701Z,98889.00
2023-04-18T14:33:26.303Z,98896.00
2023-04-18T14:36:15.306Z,98892.00
2023-04-18T14:39:03.598Z,98894.00
2023-04-18T14:41:51.141Z,98894.00
2023-04-18T14:44:38.620Z,98895.00
2023-04-18T14:47:31.461Z,98890.00
2023-04-18T14:50:19.425Z,98895.00
2023-04-18T14:53:07.615Z,98888.00
2023-04-18T14:55:55.077Z,98892.00
2023-04-18T14:58:43.955Z,98889.00
2023-04-18T15:01:31.509Z,98890.00
2023-04-18T15:04:20.061Z,98892.00
2023-04-18T15:07:08.085Z,98894.00
2023-04-18T15:09:55.621Z,98891.00
2023-04-18T15:12:46.785Z,98892.00
2023-04-18T15:15:38.042Z,98881.00
2023-04-18T15:18:25.578Z,98883.00
2023-04-18T15:21:13.044Z,98889.00
2023-04-18T15:24:00.606Z,98896.00
2023-04-18T15:26:48.293Z,98888.00
2023-04-18T15:29:35.884Z,98890.00
2023-04-18T15:32:23.614Z,98897.00
2023-04-18T15:35:12.076Z,98896.00
2023-04-18T15:37:59.702Z,98895.00
2023-04-18T15:40:47.275Z,98893.00
2023-04-18T15:43:34.895Z,98889.00
2023-04-18T15:46:22.442Z,98893.00
2023-04-18T15:49:10.390Z,98895.00
2023-04-18T15:51:57.846Z,98898.00
2023-04-18T15:54:45.410Z,98904.00
2023-04-18T15:57:32.824Z,98904.00
2023-04-18T16:00:20.936Z,98903.00
2023-04-18T16:03:10.508Z,98916.00
2023-04-18T16:05:58.228Z,98911.00
2023-04-18T16:08:45.698Z,98917.00
2023-04-18T16:11:33.275Z,98909.00
2023-04-18T16:14:20.692Z,98914.00
2023-04-18T16:17:08.257Z,98915.00
2023-04-18T16:19:55.693Z,98916.00
2023-04-18T16:22:43.180Z,98919.00
2023-04-18T16:25:30.830Z,98915.00
2023-04-18T16:28:18.673Z,98919.00
2023-04-18T16:31:06.928Z,98916.00
2023-04-18T16:33:57.269Z,98928.00
2023-04-18T16:36:44.854Z,98928.00
2023-04-18T16:39:32.450Z,98928.00
2023-04-18T16:42:19.921Z,98926.00
2023-04-18T16:45:08.234Z,98920.00
2023-04-18T16:47:55.825Z,98925.00
2023-04-18T16:50:45.722Z,98928.00
2023-04-18T16:53:33.247Z,98929.00
2023-04-18T16:56:20.806Z,98928.00
2023-04-18T16:59:10.974Z,98931.00
2023-04-18T17:01:59.414Z,98938.00
2023-04-18T17:04:47.537Z,98930.00
2023-04-18T17:07:35.320Z,98935.00
2023-04-18T17:10:22.952Z,98941.00
2023-04-18T17:13:10.550Z,98940.00
2023-04-18T17:15:58.911Z,98938.00
2023-04-18T17:18:46.408Z,98942.00
2023-04-18T17:21:35.604Z,98939.00
2023-04-18T17:24:23.138Z,98945.00
2023-04-18T17:27:10.683Z,98942.00
2023-04-18T17:29:58.103Z,98943.00
2023-04-18T17:32:49.328Z,98947.00
2023-04-18T17:35:36.896Z,98956.00
2023-04-18T17:38:24.591Z,98952.00
2023-04-18T17:41:12.006Z,98953.00
2023-04-18T17:43:59.506Z,98956.00
2023-04-18T17:46:48.864Z,98958.00
2023-04-18T17:49:37.550Z,98951.00
2023-04-18T17:52:25.080Z,98957.00
2023-04-18T17:55:12.928Z,98955.00
2023-04-18T17:58:00.598Z,98954.00
2023-04-18T18:00:48.452Z,98964.00
2023-04-18T18:03:36.092Z,98966.00
2023-04-18T18:06:23.741Z,98969.00
2023-04-18T18:09:12.172Z,98967.00
2023-04-18T18:11:59.919Z,98966.00
2023-04-18T18:14:47.412Z,98969.00
2023-04-18T18:17:35.226Z,98975.00
2023-04-18T18:20:23.334Z,98981.00
2023-04-18T18:23:16.748Z,98987.00
2023-04-18T18:26:06.861Z,98984.00
2023-04-18T18:28:54.468Z,98992.00
2023-04-18T18:31:42.068Z,98996.00
2023-04-18T18:34:32.074Z,98998.00
2023-04-18T18:37:19.825Z,99006.00
2023-04-18T18:40:08.880Z,99005.00
2023-04-18T18:42:57.548Z,99008.00
2023-04-18T18:45:44.947Z,99009.00
2023-04-18T18:48:32.922Z,99008.00
2023-04-18T18:51:20.536Z,99010.00
2023-04-18T18:54:08.102Z,99016.00
2023-04-18T18:56:55.685Z,99007.00
2023-04-18T18:59:43.548Z,99011.00
2023-04-18T19:02:31.314Z,99014.00
2023-04-18T19:05:19.173Z,99007.00
2023-04-18T19:08:06.848Z,99012.00
2023-04-18T19:10:54.371Z,99008.00
2023-04-18T19:13:41.955Z,99009.00
2023-04-18T19:16:30.691Z,99014.00
2023-04-18T19:19:18.240Z,99007.00
2023-04-18T19:22:06.701Z,99015.00
2023-04-18T19:24:54.352Z,99025.00
2023-04-18T19:27:43.161Z,99018.00
2023-04-18T19:30:30.721Z,99012.00
2023-04-18T19:33:18.222Z,99008.00
2023-04-18T19:36:06.010Z,99015.00
2023-04-18T19:38:53.551Z,99007.00
2023-04-18T19:41:41.737Z,99016.00
2023-04-18T19:44:29.269Z,99007.00
2023-04-18T19:47:16.743Z,99013.00
2023-04-18T19:50:04.792Z,99015.00
2023-04-18T19:52:52.377Z,99021.00
2023-04-18T19:55:39.909Z,99023.00
2023-04-18T19:58:39.834Z,99014.00
2023-04-18T20:01:27.511Z,99015.00
2023-04-18T20:04:15.160Z,99015.00
2023-04-18T20:07:03.053Z,99018.00
2023-04-18T20:09:52.850Z,99019.00
2023-04-18T20:12:40.655Z,99012.00
2023-04-18T20:15:30.760Z,99019.00
2023-04-18T20:18:18.418Z,99015.00
2023-04-18T20:21:11.088Z,99012.00
2023-04-18T20:23:59.614Z,99017.00
2023-04-18T20:26:48.105Z,99012.00
2023-04-18T20:29:35.506Z,99017.00
2023-04-18T20:32:23.061Z,99022.00
2023-04-18T20:35:10.702Z,99016.00
2023-04-18T20:38:00.525Z,99021.00
2023-04-18T20:40:49.033Z,99019.00
2023-04-18T20:43:37.350Z,99019.00
2023-04-18T20:46:24.943Z,99016.00
2023-04-18T20:49:12.579Z,99022.00
2023-04-18T20:52:00.298Z,99012.00
2023-04-18T20:54:47.798Z,99019.00
2023-04-18T20:57:36.423Z,99013.00
2023-04-18T21:00:24.029Z,99005.00
2023-04-18T21:03:16.040Z,99011.00
2023-04-18T21:06:03.753Z,99010.00
2023-04-18T21:08:51.221Z,99004.00
2023-04-18T21:11:38.658Z,99005.00
2023-04-18T21:14:26.129Z,99012.00
2023-04-18T21:17:17.296Z,99000.00
2023-04-18T21:20:06.641Z,99007.00
2023-04-18T21:22:54.096Z,99002.00
2023-04-18T21:25:41.666Z,99003.00
2023-04-18T21:28:29.097Z,99000.00
2023-04-18T21:31:16.556Z,98997.00
2023-04-18T21:34:05.831Z,99004.00
2023-04-18T21:36:53.381Z,99004.00
2023-04-18T21:39:42.552Z,98997.00
2023-04-18T21:42:30.148Z,99008.00
2023-04-18T21:45:18.661Z,99013.00
2023-04-18T21:48:08.858Z,99002.00
2023-04-18T21:50:56.502Z,99007.00
2023-04-18T21:53:44.546Z,99010.00
2023-04-18T21:56:32.002Z,99006.00
2023-04-18T21:59:19.475Z,99005.00
2023-04-18T22:02:07.038Z,99000.00
2023-04-18T22:04:54.622Z,98994.00
2023-04-18T22:07:50.574Z,99004.00
2023-04-18T22:10:46.288Z,99000.00
2023-04-18T22:13:33.924Z,98998.00
2023-04-18T22:16:24.782Z,99002.00
2023-04-18T22:19:12.596Z,99002.00
2023-04-18T22:22:00.169Z,99002.00
2023-04-18T22:24:47.958Z,99000.00
2023-04-18T22:27:35.589Z,99000.00
2023-04-18T22:30:23.084Z,98996.00
2023-04-18T22:33:10.596Z,98997.00
2023-04-18T22:35:58.148Z,98992.00
2023-04-18T22:38:45.761Z,98992.00
2023-04-18T22:41:33.211Z,98985.00
2023-04-18T22:44:21.162Z,98988.00
2023-04-18T22:47:08.606Z,98984.00
2023-04-18T22:49:56.512Z,98994.00
2023-04-18T22:52:43.952Z,98987.00
2023-04-18T22:55:31.498Z,98987.00
2023-04-18T22:58:18.946Z,98985.00
2023-04-18T23:01:06.522Z,98982.00
2023-04-18T23:03:54.277Z,98988.00
2023-04-18T23:06:41.978Z,98988.00
2023-04-18T23:09:31.488Z,98979.00
2023-04-18T23:12:18.928Z,98977.00
2023-04-18T23:15:07.387Z,98981.00
2023-04-18T23:17:55.131Z,98977.00
2023-04-18T23:20:42.765Z,98974.00
2023-04-18T23:23:30.301Z,98966.00
2023-04-18T23:26:18.177Z,98964.00
2023-04-18T23:29:05.778Z,98959.00
2023-04-18T23:31:53.364Z,98964.00
2023-04-18T23:34:41.103Z,98966.00
2023-04-18T23:37:28.711Z,98960.00
2023-04-18T23:40:16.308Z,98952.00
2023-04-18T23:43:03.809Z,98957.00
2023-04-18T23:45:51.306Z,98959.00
2023-04-18T23:48:38.839Z,98954.00
2023-04-18T23:51:27.857Z,98958.00
2023-04-18T23:54:15.618Z,98952.00
2023-04-18T23:57:03.445Z,98948.00
2023-04-18T23:59:51.126Z,98943.00
